createdAt,value
2023-04-07T00:02:45.165Z,98876.72
2023-04-07T00:07:56.016Z,98932.88
2023-04-07T00:12:59.688Z,98945.56
2023-04-07T00:18:02.074Z,98901.69
2023-04-07T00:23:04.214Z,98888.53
2023-04-07T00:28:06.373Z,98931.38
2023-04-07T00:33:09.757Z,98938.78
2023-04-07T00:38:12.125Z,98916.34
2023-04-07T00:43:14.376Z,98855.50
2023-04-07T00:48:16.695Z,98816.81
2023-04-07T00:53:20.316Z,98832.38
2023-04-07T00:58:22.844Z,98902.72
2023-04-07T01:03:36.190Z,98855.19
2023-04-07T01:09:02.037Z,98862.19
2023-04-07T01:14:06.774Z,98863.84
2023-04-07T01:19:41.201Z,98841.84
2023-04-07T01:25:12.395Z,98833.09
2023-04-07T01:30:17.593Z,98887.66
2023-04-07T01:35:20.866Z,98820.63
2023-04-07T01:40:23.687Z,98883.78
2023-04-07T01:45:28.312Z,98880.00
2023-04-07T01:50:31.041Z,98860.59
2023-04-07T01:55:35.135Z,98747.00
2023-04-07T02:00:42.077Z,98795.53
2023-04-07T02:05:52.666Z,98758.88
2023-04-07T02:10:57.528Z,98794.59
2023-04-07T02:16:03.010Z,98826.28
2023-04-07T02:21:06.593Z,98834.34
2023-04-07T02:26:08.804Z,98817.88
2023-04-07T02:31:13.644Z,98758.66
2023-04-07T02:36:16.126Z,98805.97
2023-04-07T02:41:18.436Z,98772.00
2023-04-07T02:46:20.717Z,98760.97
2023-04-07T02:51:22.886Z,98721.91
2023-04-07T02:56:25.046Z,98700.41
2023-04-07T03:01:28.198Z,98768.66
2023-04-07T03:06:31.733Z,98745.44
2023-04-07T03:11:43.489Z,98741.47
2023-04-07T03:16:45.955Z,98643.19
2023-04-07T03:21:49.562Z,98783.66
2023-04-07T03:26:51.731Z,98734.75
2023-04-07T03:32:02.950Z,98642.81
2023-04-07T03:37:05.542Z,98744.63
2023-04-07T03:42:11.278Z,98629.28
2023-04-07T03:47:13.767Z,98699.56
2023-04-07T03:52:16.504Z,98716.47
2023-04-07T03:57:22.459Z,98585.91
2023-04-07T04:02:26.965Z,98621.31
2023-04-07T04:07:31.420Z,98744.53
2023-04-07T04:12:41.773Z,98734.84
2023-04-07T04:17:46.564Z,98596.03
2023-04-07T04:22:49.062Z,98602.03
2023-04-07T04:27:52.484Z,98703.56
2023-04-07T04:32:58.559Z,98682.56
2023-04-07T04:38:10.583Z,98683.38
2023-04-07T04:43:17.163Z,98684.31
2023-04-07T04:48:20.196Z,98720.69
2023-04-07T04:53:23.389Z,98767.53
2023-04-07T04:58:31.443Z,98684.28
2023-04-07T05:03:33.957Z,98668.03
2023-04-07T05:08:39.498Z,98805.97
2023-04-07T05:13:42.292Z,98802.75
2023-04-07T05:18:44.503Z,98787.50
2023-04-07T05:23:47.206Z,98762.09
2023-04-07T05:28:49.739Z,98702.16
2023-04-07T05:33:55.728Z,98709.53
2023-04-07T05:39:01.661Z,98681.41
2023-04-07T05:44:04.407Z,98767.03
2023-04-07T05:49:19.657Z,98791.69
2023-04-07T05:54:27.786Z,98824.13
2023-04-07T05:59:30.294Z,98814.13
2023-04-07T06:04:35.252Z,98785.34
2023-04-07T06:09:40.026Z,98807.63
2023-04-07T06:14:42.334Z,98754.19
2023-04-07T06:19:44.722Z,98817.44
2023-04-07T06:24:47.027Z,98854.75
2023-04-07T06:29:49.361Z,98789.97
2023-04-07T06:34:51.745Z,98848.94
2023-04-07T06:39:54.045Z,98860.75
2023-04-07T06:44:56.346Z,98847.03
2023-04-07T06:49:58.640Z,98843.13
2023-04-07T06:55:00.829Z,98863.19
2023-04-07T07:00:03.333Z,98872.75
2023-04-07T07:05:06.262Z,98855.44
2023-04-07T07:10:11.144Z,98874.50
2023-04-07T07:15:13.444Z,98846.03
2023-04-07T07:20:15.929Z,98870.00
2023-04-07T07:25:18.326Z,98798.56
2023-04-07T07:30:24.992Z,98916.16
2023-04-07T07:35:27.108Z,98876.03
2023-04-07T07:40:29.450Z,98947.75
2023-04-07T07:45:31.740Z,98885.28
2023-04-07T07:50:34.036Z,98894.25
2023-04-07T07:55:36.319Z,98921.03
2023-04-07T08:00:38.669Z,98921.63
2023-04-07T08:05:40.939Z,98913.06
2023-04-07T08:10:43.356Z,98894.94
2023-04-07T08:15:45.687Z,98932.25
2023-04-07T08:20:48.007Z,98869.16
2023-04-07T08:25:50.429Z,98974.97
2023-04-07T08:30:52.738Z,98965.16
2023-04-07T08:35:55.084Z,98864.97
2023-04-07T08:41:14.413Z,98879.22
2023-04-07T08:46:19.564Z,98963.53
2023-04-07T08:51:33.302Z,98933.47
2023-04-07T08:56:38.264Z,98938.16
2023-04-07T09:01:42.140Z,98923.94
2023-04-07T09:06:44.544Z,98943.41
2023-04-07T09:11:49.512Z,98962.34
2023-04-07T09:16:51.898Z,98861.00
2023-04-07T09:21:54.304Z,98902.69
2023-04-07T09:27:19.676Z,98987.16
2023-04-07T09:32:39.005Z,98947.94
2023-04-07T09:37:42.567Z,98943.72
2023-04-07T09:42:48.381Z,98924.09
2023-04-07T09:47:52.066Z,98993.94
2023-04-07T09:52:54.466Z,98957.94
2023-04-07T09:57:56.945Z,98971.44
2023-04-07T10:02:59.456Z,98932.22
2023-04-07T10:08:02.688Z,98967.88
2023-04-07T10:13:08.776Z,99014.63
2023-04-07T10:18:12.436Z,98983.81
2023-04-07T10:23:24.203Z,98883.34
2023-04-07T10:28:29.149Z,98983.09
2023-04-07T10:33:56.434Z,99023.00
2023-04-07T10:39:07.408Z,98986.63
2023-04-07T10:44:39.807Z,99000.28
2023-04-07T10:50:22.253Z,99015.31
2023-04-07T10:55:40.418Z,99039.44
2023-04-07T11:00:43.647Z,99059.63
2023-04-07T11:05:46.093Z,99046.66
2023-04-07T11:10:48.897Z,99043.81
2023-04-07T11:15:54.788Z,99036.47
2023-04-07T11:21:01.163Z,98973.38
2023-04-07T11:26:04.023Z,99043.09
2023-04-07T11:31:06.267Z,99037.19
2023-04-07T11:36:08.531Z,99021.00
2023-04-07T11:41:19.691Z,99011.59
2023-04-07T11:46:22.636Z,99042.94
2023-04-07T11:51:24.895Z,99059.84
2023-04-07T11:56:27.987Z,99021.72
2023-04-07T12:01:43.666Z,99105.19
2023-04-07T12:06:48.355Z,99088.25
2023-04-07T12:11:51.317Z,99034.88
2023-04-07T12:16:56.535Z,99005.59
2023-04-07T12:21:58.753Z,99080.50
2023-04-07T12:27:00.941Z,99036.88
2023-04-07T12:32:04.385Z,99059.53
2023-04-07T12:37:06.519Z,99099.81
2023-04-07T12:42:11.842Z,99106.75
2023-04-07T12:47:14.196Z,99027.78
2023-04-07T12:52:17.017Z,99081.69
2023-04-07T12:57:47.661Z,99070.63
2023-04-07T13:02:50.743Z,99073.94
2023-04-07T13:07:53.076Z,99107.88
2023-04-07T13:12:55.494Z,99092.97
2023-04-07T13:17:57.724Z,99087.47
2023-04-07T13:23:07.492Z,99101.00
2023-04-07T13:28:11.933Z,99116.19
2023-04-07T13:33:14.410Z,99128.44
2023-04-07T13:38:16.673Z,99130.03
2023-04-07T13:43:19.173Z,99114.03
2023-04-07T13:48:21.768Z,99121.94
2023-04-07T13:53:24.162Z,99141.19
2023-04-07T13:58:26.327Z,99095.38
2023-04-07T14:03:28.659Z,99077.03
2023-04-07T14:08:30.929Z,99117.75
2023-04-07T14:13:33.254Z,99159.19
2023-04-07T14:18:35.595Z,99095.41
2023-04-07T14:23:38.312Z,99078.97
2023-04-07T14:28:40.694Z,99109.25
2023-04-07T14:33:44.475Z,99100.91
2023-04-07T14:38:46.535Z,99093.19
2023-04-07T14:43:53.581Z,99094.47
2023-04-07T14:48:58.341Z,99136.41
2023-04-07T14:54:00.850Z,99085.91
2023-04-07T14:59:03.325Z,99113.50
2023-04-07T15:04:05.778Z,99120.53
2023-04-07T15:09:08.007Z,99087.44
2023-04-07T15:14:10.257Z,99100.50
2023-04-07T15:19:12.356Z,99093.56
2023-04-07T15:24:16.330Z,99052.06
2023-04-07T15:29:18.705Z,99106.56
2023-04-07T15:34:20.981Z,99081.41
2023-04-07T15:39:23.096Z,99180.59
2023-04-07T15:44:25.295Z,99179.75
2023-04-07T15:49:27.378Z,99154.66
2023-04-07T15:54:29.592Z,99105.66
2023-04-07T15:59:31.899Z,99160.09
2023-04-07T16:04:34.245Z,99123.41
2023-04-07T16:09:36.400Z,99204.50
2023-04-07T16:14:38.546Z,99164.41
2023-04-07T16:19:40.671Z,99137.19
2023-04-07T16:24:42.776Z,99159.09
2023-04-07T16:29:44.875Z,99106.56
2023-04-07T16:34:47.033Z,99118.31
2023-04-07T16:39:49.391Z,99178.38
2023-04-07T16:44:51.614Z,99172.03
2023-04-07T16:49:54.163Z,99112.81
2023-04-07T16:54:56.274Z,99155.97
2023-04-07T16:59:58.770Z,99192.63
2023-04-07T17:05:01.036Z,99162.56
2023-04-07T17:10:03.701Z,99178.44
2023-04-07T17:15:06.605Z,99174.69
2023-04-07T17:20:09.571Z,99155.44
2023-04-07T17:25:12.264Z,99137.69
2023-04-07T17:30:14.592Z,99135.25
2023-04-07T17:35:17.062Z,99131.34
2023-04-07T17:40:19.521Z,99204.16
2023-04-07T17:45:22.403Z,99205.81
2023-04-07T17:50:24.553Z,99212.72
2023-04-07T17:55:28.179Z,99206.31
2023-04-07T18:00:30.645Z,99223.41
2023-04-07T18:05:32.854Z,99210.41
2023-04-07T18:10:34.984Z,99242.66
2023-04-07T18:15:37.613Z,99226.41
2023-04-07T18:20:39.923Z,99197.91
2023-04-07T18:25:42.492Z,99237.28
2023-04-07T18:30:44.753Z,99236.03
2023-04-07T18:35:46.886Z,99177.75
2023-04-07T18:40:49.202Z,99221.50
2023-04-07T18:45:52.831Z,99269.91
2023-04-07T18:50:56.718Z,99292.88
2023-04-07T18:55:59.292Z,99246.63
2023-04-07T19:01:01.444Z,99214.53
2023-04-07T19:06:04.711Z,99151.97
2023-04-07T19:11:07.237Z,99201.03
2023-04-07T19:16:09.790Z,99208.22
2023-04-07T19:21:13.525Z,99240.03
2023-04-07T19:26:16.041Z,99210.97
2023-04-07T19:31:18.209Z,99211.56
2023-04-07T19:36:20.955Z,99167.66
2023-04-07T19:41:23.195Z,99226.28
2023-04-07T19:46:25.697Z,99236.94
2023-04-07T19:51:28.514Z,99258.72
2023-04-07T19:56:30.803Z,99216.19
2023-04-07T20:01:33.165Z,99274.50
2023-04-07T20:06:36.657Z,99200.09
2023-04-07T20:11:38.787Z,99199.59
2023-04-07T20:16:41.577Z,99226.44
2023-04-07T20:21:43.913Z,99238.75
2023-04-07T20:26:46.615Z,99200.84
2023-04-07T20:31:48.857Z,99262.44
2023-04-07T20:36:51.137Z,99269.03
2023-04-07T20:41:53.322Z,99220.53
2023-04-07T20:46:56.340Z,99265.19
2023-04-07T20:51:59.086Z,99306.66
2023-04-07T20:57:02.231Z,99274.50
2023-04-07T21:02:04.577Z,99275.00
2023-04-07T21:07:06.784Z,99306.94
2023-04-07T21:12:10.056Z,99288.19
2023-04-07T21:17:12.603Z,99285.25
2023-04-07T21:22:14.728Z,99280.88
2023-04-07T21:27:17.681Z,99305.75
2023-04-07T21:32:20.734Z,99324.00
2023-04-07T21:37:23.055Z,99312.75
2023-04-07T21:42:25.169Z,99236.22
2023-04-07T21:47:27.325Z,99265.09
2023-04-07T21:52:29.490Z,99305.41
2023-04-07T21:57:31.808Z,99287.56
2023-04-07T22:02:34.314Z,99290.38
2023-04-07T22:07:37.390Z,99331.56
2023-04-07T22:12:39.634Z,99273.47
2023-04-07T22:17:42.374Z,99254.09
2023-04-07T22:22:44.664Z,99284.16
2023-04-07T22:27:46.805Z,99297.44
2023-04-07T22:32:48.956Z,99351.59
2023-04-07T22:37:51.294Z,99318.31
2023-04-07T22:42:53.517Z,99301.28
2023-04-07T22:47:56.232Z,99346.03
2023-04-07T22:52:58.633Z,99319.91
2023-04-07T22:58:01.231Z,99354.91
2023-04-07T23:03:03.836Z,99304.94
2023-04-07T23:08:06.285Z,99318.28
2023-04-07T23:13:08.409Z,99329.44
2023-04-07T23:18:10.679Z,99331.69
2023-04-07T23:23:12.866Z,99264.50
2023-04-07T23:28:15.507Z,99258.78
2023-04-07T23:33:18.256Z,99299.34
2023-04-07T23:38:20.538Z,99293.69
2023-04-07T23:43:22.625Z,99330.13
2023-04-07T23:48:26.226Z,99272.94
2023-04-07T23:53:28.386Z,99239.28
2023-04-07T23:58:30.571Z,99282.47
